createdAt,value
2018-04-22T00:00:27.519Z,60.40
2018-04-22T00:03:08.042Z,60.50
2018-04-22T00:05:37.021Z,60.70
2018-04-22T00:08:05.472Z,60.70
2018-04-22T00:10:33.858Z,60.80
2018-04-22T00:13:12.024Z,60.90
2018-04-22T00:15:56.220Z,61.20
2018-04-22T00:18:37.988Z,61.20
2018-04-22T00:21:09.130Z,61.50
2018-04-22T00:23:41.577Z,61.80
2018-04-22T00:26:13.508Z,62.00
2018-04-22T00:28:43.074Z,61.70
2018-04-22T00:31:11.463Z,61.70
2018-04-22T00:33:39.851Z,61.70
2018-04-22T00:36:08.253Z,62.00
2018-04-22T00:38:36.631Z,62.00
2018-04-22T00:41:05.039Z,62.40
2018-04-22T00:43:33.488Z,62.80
2018-04-22T00:46:02.129Z,62.90
2018-04-22T00:48:30.505Z,62.90
2018-04-22T00:50:58.895Z,63.00
2018-04-22T00:53:27.326Z,62.90
2018-04-22T00:55:56.492Z,63.30
2018-04-22T00:58:24.902Z,63.20
2018-04-22T01:00:54.049Z,63.20
2018-04-22T01:03:22.620Z,63.10
2018-04-22T01:05:50.997Z,63.20
2018-04-22T01:08:19.374Z,63.20
2018-04-22T01:10:47.780Z,63.20
2018-04-22T01:13:16.152Z,63.30
2018-04-22T01:15:44.556Z,63.20
2018-04-22T01:18:12.951Z,63.30
2018-04-22T01:20:42.121Z,63.30
2018-04-22T01:23:10.500Z,63.30
2018-04-22T01:25:38.880Z,63.40
2018-04-22T01:28:08.048Z,63.50
2018-04-22T01:30:36.433Z,63.50
2018-04-22T01:33:04.833Z,63.50
2018-04-22T01:35:33.295Z,64.00
2018-04-22T01:38:01.694Z,63.80
2018-04-22T01:40:30.099Z,63.80
2018-04-22T01:42:59.245Z,63.70
2018-04-22T01:45:27.648Z,63.70
2018-04-22T01:47:56.033Z,63.70
2018-04-22T01:50:24.790Z,64.00
2018-04-22T01:52:53.165Z,64.10
2018-04-22T01:55:21.546Z,64.60
2018-04-22T01:57:49.948Z,64.50
2018-04-22T02:00:18.325Z,64.90
2018-04-22T02:02:46.721Z,65.10
2018-04-22T02:05:15.106Z,65.10
2018-04-22T02:07:44.270Z,64.60
2018-04-22T02:10:12.675Z,64.60
2018-04-22T02:12:41.060Z,65.00
2018-04-22T02:15:10.222Z,65.20
2018-04-22T02:17:38.614Z,64.60
2018-04-22T02:20:08.128Z,65.20
2018-04-22T02:22:36.522Z,64.40
2018-04-22T02:25:05.776Z,64.30
2018-04-22T02:27:34.296Z,64.30
2018-04-22T02:30:02.674Z,64.60
2018-04-22T02:32:31.209Z,65.50
2018-04-22T02:34:59.584Z,64.90
2018-04-22T02:37:27.981Z,64.90
2018-04-22T02:39:56.390Z,65.00
2018-04-22T02:42:24.769Z,65.00
2018-04-22T02:44:53.300Z,65.30
2018-04-22T02:47:21.675Z,64.80
2018-04-22T02:49:50.057Z,65.70
2018-04-22T02:52:18.457Z,65.80
2018-04-22T02:54:46.837Z,65.90
2018-04-22T02:57:15.234Z,66.00
2018-04-22T02:59:43.609Z,66.10
2018-04-22T03:02:12.149Z,66.30
2018-04-22T03:04:40.521Z,66.40
2018-04-22T03:07:08.893Z,66.30
2018-04-22T03:09:37.301Z,66.50
2018-04-22T03:12:05.684Z,66.30
2018-04-22T03:14:34.081Z,66.30
2018-04-22T03:17:02.469Z,66.30
2018-04-22T03:19:31.117Z,66.50
2018-04-22T03:21:59.500Z,67.10
2018-04-22T03:24:27.871Z,66.60
2018-04-22T03:26:56.289Z,66.40
2018-04-22T03:29:25.478Z,66.20
2018-04-22T03:31:53.867Z,66.20
2018-04-22T03:34:23.018Z,66.60
2018-04-22T03:36:51.577Z,66.50
2018-04-22T03:39:19.944Z,66.50
2018-04-22T03:41:49.084Z,66.90
2018-04-22T03:44:17.484Z,66.80
2018-04-22T03:46:45.871Z,67.00
2018-04-22T03:49:14.624Z,67.80
2018-04-22T03:51:42.996Z,68.40
2018-04-22T03:54:11.372Z,68.10
2018-04-22T03:56:39.774Z,67.80
2018-04-22T03:59:08.156Z,67.90
2018-04-22T04:01:36.560Z,67.80
2018-04-22T04:04:04.928Z,67.70
2018-04-22T04:06:33.572Z,68.10
2018-04-22T04:09:01.939Z,68.30
2018-04-22T04:11:30.320Z,68.20
2018-04-22T04:13:58.724Z,68.10
2018-04-22T04:16:27.106Z,68.30
2018-04-22T04:19:13.442Z,68.20
2018-04-22T04:21:59.596Z,68.50
2018-04-22T04:27:51.106Z,70.00
2018-04-22T04:30:19.510Z,69.50
2018-04-22T04:32:47.893Z,69.90
2018-04-22T04:35:16.301Z,69.60
2018-04-22T04:37:44.672Z,68.90
2018-04-22T04:40:13.316Z,68.80
2018-04-22T04:42:41.685Z,69.00
2018-04-22T04:45:10.061Z,69.60
2018-04-22T04:47:38.477Z,69.00
2018-04-22T04:50:06.850Z,68.70
2018-04-22T04:52:35.318Z,68.30
2018-04-22T04:55:03.702Z,67.80
2018-04-22T04:57:32.130Z,67.70
2018-04-22T05:00:01.276Z,67.70
2018-04-22T05:02:29.653Z,67.70
2018-04-22T05:04:58.047Z,67.70
2018-04-22T05:07:26.437Z,67.80
2018-04-22T05:09:55.590Z,67.40
2018-04-22T05:12:23.967Z,67.40
2018-04-22T05:14:52.577Z,67.80
2018-04-22T05:17:20.973Z,68.50
2018-04-22T05:19:49.353Z,68.90
2018-04-22T05:22:17.789Z,68.70
2018-04-22T05:24:46.164Z,68.10
2018-04-22T05:27:14.561Z,67.70
2018-04-22T05:29:42.943Z,67.30
2018-04-22T05:32:11.730Z,66.80
2018-04-22T05:34:40.109Z,66.50
2018-04-22T05:37:08.489Z,66.70
2018-04-22T05:39:36.896Z,67.10
2018-04-22T05:42:05.425Z,67.20
2018-04-22T05:44:33.820Z,67.90
2018-04-22T05:47:02.209Z,67.90
2018-04-22T05:49:30.786Z,67.50
2018-04-22T05:51:59.190Z,67.40
2018-04-22T05:54:27.581Z,67.50
2018-04-22T05:56:55.988Z,67.50
2018-04-22T05:59:25.160Z,67.40
2018-04-22T06:01:53.569Z,67.40
2018-04-22T06:04:21.959Z,67.40
2018-04-22T06:06:50.685Z,67.40
2018-04-22T06:09:19.061Z,67.70
2018-04-22T06:11:47.461Z,67.30
2018-04-22T06:14:15.880Z,67.40
2018-04-22T06:16:44.273Z,68.20
2018-04-22T06:19:12.681Z,67.20
2018-04-22T06:21:41.068Z,66.80
2018-04-22T06:24:10.448Z,65.70
2018-04-22T06:26:38.897Z,65.60
2018-04-22T06:29:07.292Z,64.90
2018-04-22T06:31:35.973Z,64.40
2018-04-22T06:34:04.374Z,64.40
2018-04-22T06:36:32.777Z,64.90
2018-04-22T06:39:01.571Z,64.60
2018-04-22T06:41:30.755Z,62.90
2018-04-22T06:43:59.140Z,62.80
2018-04-22T06:46:27.520Z,62.80
2018-04-22T06:48:55.929Z,62.80
2018-04-22T06:51:24.317Z,62.60
2018-04-22T06:53:52.718Z,62.40
2018-04-22T06:56:21.097Z,61.60
2018-04-22T06:58:50.001Z,61.00
2018-04-22T07:01:18.393Z,61.00
2018-04-22T07:03:46.860Z,60.20
2018-04-22T07:06:15.280Z,59.20
2018-04-22T07:08:44.431Z,58.40
2018-04-22T07:11:12.838Z,58.40
2018-04-22T07:13:41.220Z,58.00
2018-04-22T07:16:09.965Z,57.30
2018-04-22T07:18:38.356Z,56.70
2018-04-22T07:21:07.069Z,56.00
2018-04-22T07:23:35.479Z,55.50
2018-04-22T07:26:03.878Z,55.20
2018-04-22T07:28:32.278Z,54.80
2018-04-22T07:31:00.657Z,53.20
2018-04-22T07:33:29.320Z,51.00
2018-04-22T07:35:57.694Z,50.50
2018-04-22T07:38:26.108Z,50.60
2018-04-22T07:40:54.512Z,50.00
2018-04-22T07:43:22.929Z,48.90
2018-04-22T07:45:51.334Z,49.70
2018-04-22T07:48:19.712Z,49.30
2018-04-22T07:50:48.128Z,49.00
2018-04-22T07:53:16.505Z,47.40
2018-04-22T07:55:44.880Z,46.40
2018-04-22T07:58:14.785Z,45.50
2018-04-22T08:00:44.674Z,45.60
2018-04-22T08:03:13.254Z,45.60
2018-04-22T08:05:41.656Z,44.60
2018-04-22T08:08:10.037Z,45.00
2018-04-22T08:10:38.441Z,45.00
2018-04-22T08:13:07.589Z,45.30
2018-04-22T08:15:36.071Z,45.20
2018-04-22T08:18:04.446Z,44.90
2018-04-22T08:20:32.825Z,45.10
2018-04-22T08:23:01.227Z,44.70
2018-04-22T08:25:29.600Z,44.20
2018-04-22T08:27:58.028Z,42.80
2018-04-22T08:30:26.446Z,43.80
2018-04-22T08:32:54.824Z,43.10
2018-04-22T08:35:23.221Z,43.40
2018-04-22T08:37:51.596Z,42.70
2018-04-22T08:40:20.008Z,42.70
2018-04-22T08:42:49.157Z,41.90
2018-04-22T08:45:17.585Z,41.90
2018-04-22T08:47:58.444Z,41.20
2018-04-22T08:50:40.633Z,41.20
2018-04-22T08:53:24.462Z,40.50
2018-04-22T08:55:57.155Z,40.80
2018-04-22T08:58:28.716Z,41.20
2018-04-22T09:00:58.973Z,40.30
2018-04-22T09:03:28.665Z,40.80
2018-04-22T09:06:02.557Z,38.20
2018-04-22T09:08:42.818Z,38.20
2018-04-22T09:11:13.529Z,39.40
2018-04-22T09:13:48.591Z,38.40
2018-04-22T09:16:17.522Z,38.00
2018-04-22T09:18:53.584Z,36.40
2018-04-22T09:21:28.322Z,37.90
2018-04-22T09:23:57.817Z,37.00
2018-04-22T09:26:26.247Z,36.30
2018-04-22T09:28:55.400Z,35.00
2018-04-22T09:31:23.788Z,34.90
2018-04-22T09:33:52.184Z,34.90
2018-04-22T09:36:22.069Z,33.60
2018-04-22T09:38:50.477Z,33.60
2018-04-22T09:41:18.865Z,33.30
2018-04-22T09:43:47.499Z,33.00
2018-04-22T09:46:15.905Z,33.90
2018-04-22T09:48:51.877Z,33.20
2018-04-22T09:51:21.035Z,32.70
2018-04-22T09:53:50.741Z,31.60
2018-04-22T09:56:20.047Z,31.40
2018-04-22T09:58:50.366Z,31.00
2018-04-22T10:01:22.695Z,31.00
2018-04-22T10:03:52.655Z,30.00
2018-04-22T10:06:22.948Z,30.00
2018-04-22T10:08:54.692Z,30.00
2018-04-22T10:11:25.036Z,30.60
2018-04-22T10:13:55.025Z,30.30
2018-04-22T10:16:25.637Z,29.80
2018-04-22T10:18:56.495Z,29.70
2018-04-22T10:21:27.112Z,29.90
2018-04-22T10:24:06.465Z,29.90
2018-04-22T10:26:35.541Z,29.70
2018-04-22T10:29:05.303Z,29.80
2018-04-22T10:31:43.263Z,30.00
2018-04-22T10:34:26.312Z,30.20
2018-04-22T10:36:58.972Z,30.10
2018-04-22T10:39:29.657Z,28.30
2018-04-22T10:42:00.504Z,28.30
2018-04-22T10:44:32.244Z,27.50
2018-04-22T10:47:03.993Z,27.40
2018-04-22T10:49:34.859Z,27.50
2018-04-22T10:52:04.650Z,27.40
2018-04-22T10:54:34.518Z,28.70
2018-04-22T10:57:04.058Z,28.10
2018-04-22T10:59:35.137Z,28.10
2018-04-22T11:02:04.489Z,29.00
2018-04-22T11:04:35.822Z,28.60
2018-04-22T11:07:07.032Z,27.20
2018-04-22T11:09:35.917Z,27.20
2018-04-22T11:12:05.456Z,27.00
2018-04-22T11:14:43.697Z,26.90
2018-04-22T11:17:23.617Z,26.80
2018-04-22T11:20:04.747Z,27.30
2018-04-22T11:22:35.329Z,26.30
2018-04-22T11:25:04.664Z,26.10
2018-04-22T11:27:36.129Z,25.30
2018-04-22T11:30:07.829Z,25.80
2018-04-22T11:32:39.846Z,25.50
2018-04-22T11:35:23.126Z,25.50
2018-04-22T11:37:56.423Z,25.50
2018-04-22T11:40:28.077Z,25.30
2018-04-22T11:43:08.796Z,25.30
2018-04-22T11:45:43.163Z,24.70
2018-04-22T11:48:14.002Z,24.70
2018-04-22T11:50:44.361Z,24.30
2018-04-22T11:53:20.035Z,24.40
2018-04-22T11:55:48.700Z,22.60
2018-04-22T11:58:17.080Z,23.50
2018-04-22T12:00:45.485Z,23.00
2018-04-22T12:03:13.891Z,21.80
2018-04-22T12:05:43.033Z,21.40
2018-04-22T12:08:12.016Z,21.40
2018-04-22T12:10:40.932Z,22.10
2018-04-22T12:13:09.349Z,21.60
2018-04-22T12:15:37.750Z,21.20
2018-04-22T12:18:06.302Z,22.10
2018-04-22T12:20:34.737Z,22.20
2018-04-22T12:23:03.116Z,23.70
2018-04-22T12:25:31.516Z,24.30
2018-04-22T12:27:59.897Z,24.10
2018-04-22T12:30:29.276Z,23.80
2018-04-22T12:32:57.657Z,23.80
2018-04-22T12:35:26.033Z,24.40
2018-04-22T12:37:57.139Z,23.50
2018-04-22T12:40:26.345Z,22.70
2018-04-22T12:42:54.756Z,22.10
2018-04-22T12:45:45.365Z,22.20
2018-04-22T12:48:30.957Z,23.40
2018-04-22T12:51:12.591Z,23.40
2018-04-22T12:53:41.075Z,22.50
2018-04-22T12:56:09.565Z,23.00
2018-04-22T12:58:38.026Z,22.10
2018-04-22T13:01:06.441Z,21.80
2018-04-22T13:03:34.837Z,21.10
2018-04-22T13:06:03.224Z,21.20
2018-04-22T13:08:32.591Z,20.80
2018-04-22T13:11:00.977Z,20.80
2018-04-22T13:13:29.352Z,21.20
2018-04-22T13:15:57.869Z,21.80
2018-04-22T13:18:26.234Z,22.00
2018-04-22T13:20:55.421Z,22.80
2018-04-22T13:23:23.789Z,22.80
2018-04-22T13:25:52.664Z,22.10
2018-04-22T13:28:21.050Z,21.70
2018-04-22T13:30:49.424Z,21.20
2018-04-22T13:33:17.818Z,20.90
2018-04-22T13:35:46.741Z,20.50
2018-04-22T13:38:16.071Z,20.80
2018-04-22T13:40:44.444Z,20.70
2018-04-22T13:43:13.873Z,20.60
2018-04-22T13:45:42.253Z,20.90
2018-04-22T13:48:10.625Z,19.90
2018-04-22T13:50:39.026Z,20.30
2018-04-22T13:53:07.480Z,20.40
2018-04-22T13:55:35.872Z,19.90
2018-04-22T13:58:04.276Z,19.60
2018-04-22T14:00:32.924Z,20.50
2018-04-22T14:03:01.288Z,20.40
2018-04-22T14:05:29.676Z,20.70
2018-04-22T14:07:58.172Z,21.30
2018-04-22T14:10:26.613Z,20.60
2018-04-22T14:12:55.808Z,20.60
2018-04-22T14:15:24.964Z,20.40
2018-04-22T14:17:53.624Z,20.40
2018-04-22T14:20:22.287Z,21.10
2018-04-22T14:22:50.800Z,21.60
2018-04-22T14:25:20.022Z,21.80
2018-04-22T14:27:49.184Z,21.40
2018-04-22T14:30:17.568Z,21.40
2018-04-22T14:32:46.209Z,22.20
2018-04-22T14:35:15.732Z,22.20
2018-04-22T14:37:44.135Z,22.10
2018-04-22T14:40:12.677Z,21.50
2018-04-22T14:42:41.841Z,22.50
2018-04-22T14:45:28.257Z,22.50
2018-04-22T14:47:56.707Z,22.70
2018-04-22T14:50:25.346Z,22.60
2018-04-22T14:52:53.755Z,22.80
2018-04-22T14:55:22.201Z,23.50
2018-04-22T14:57:51.396Z,23.60
2018-04-22T15:00:19.768Z,23.60
2018-04-22T15:02:48.956Z,23.00
2018-04-22T15:05:17.395Z,23.00
2018-04-22T15:07:45.742Z,23.30
2018-04-22T15:10:14.144Z,23.50
2018-04-22T15:12:42.539Z,23.80
2018-04-22T15:15:11.197Z,24.30
2018-04-22T15:17:39.571Z,23.60
2018-04-22T15:20:07.945Z,23.90
2018-04-22T15:22:36.352Z,23.90
2018-04-22T15:25:04.744Z,24.50
2018-04-22T15:27:33.140Z,24.10
2018-04-22T15:30:01.685Z,23.20
2018-04-22T15:32:30.377Z,23.50
2018-04-22T15:34:58.765Z,24.10
2018-04-22T15:37:27.133Z,24.00
2018-04-22T15:39:55.526Z,24.50
2018-04-22T15:42:23.905Z,24.70
2018-04-22T15:44:52.289Z,24.80
2018-04-22T15:47:20.700Z,24.80
2018-04-22T15:49:49.854Z,24.00
2018-04-22T15:52:18.281Z,24.00
2018-04-22T15:54:47.488Z,24.60
2018-04-22T15:57:15.882Z,24.60
2018-04-22T15:59:44.254Z,24.50
2018-04-22T16:02:12.645Z,25.30
2018-04-22T16:04:41.013Z,25.20
2018-04-22T16:07:09.424Z,25.60
2018-04-22T16:09:37.809Z,26.10
2018-04-22T16:12:06.233Z,25.90
2018-04-22T16:14:34.987Z,26.00
2018-04-22T16:17:03.319Z,26.20
2018-04-22T16:19:31.776Z,25.40
2018-04-22T16:22:00.908Z,26.40
2018-04-22T16:24:29.328Z,26.40
2018-04-22T16:26:57.701Z,26.00
2018-04-22T16:29:26.071Z,25.60
2018-04-22T16:31:54.489Z,25.50
2018-04-22T16:34:22.915Z,25.10
2018-04-22T16:36:51.487Z,26.50
2018-04-22T16:39:19.877Z,26.10
2018-04-22T16:41:48.441Z,25.90
2018-04-22T16:44:16.809Z,26.60
2018-04-22T16:46:45.184Z,26.70
2018-04-22T16:49:13.568Z,27.00
2018-04-22T16:51:41.941Z,27.20
2018-04-22T16:54:10.332Z,27.40
2018-04-22T16:56:38.742Z,27.70
2018-04-22T16:59:07.473Z,28.00
2018-04-22T17:01:35.865Z,27.80
2018-04-22T17:04:04.243Z,28.10
2018-04-22T17:06:32.773Z,28.00
2018-04-22T17:09:01.206Z,28.30
2018-04-22T17:11:29.593Z,28.50
2018-04-22T17:13:57.966Z,28.50
2018-04-22T17:16:26.545Z,28.60
2018-04-22T17:18:54.916Z,28.60
2018-04-22T17:21:23.293Z,28.80
2018-04-22T17:23:51.824Z,28.80
2018-04-22T17:26:20.196Z,29.20
2018-04-22T17:28:48.628Z,29.50
2018-04-22T17:31:17.096Z,29.70
2018-04-22T17:33:46.952Z,29.70
2018-04-22T17:36:16.005Z,29.60
2018-04-22T17:38:44.939Z,29.40
2018-04-22T17:41:13.855Z,29.40
2018-04-22T17:43:43.112Z,29.90
2018-04-22T17:46:11.509Z,29.90
2018-04-22T17:48:40.091Z,29.80
2018-04-22T17:51:08.545Z,30.00
2018-04-22T17:53:36.920Z,30.20
2018-04-22T17:56:05.481Z,30.50
2018-04-22T17:58:34.704Z,31.70
2018-04-22T18:01:03.173Z,31.80
2018-04-22T18:03:32.439Z,32.90
2018-04-22T18:06:00.819Z,32.90
2018-04-22T18:08:29.573Z,33.20
2018-04-22T18:10:58.125Z,33.40
2018-04-22T18:13:26.489Z,33.30
2018-04-22T18:15:56.142Z,33.70
2018-04-22T18:18:24.577Z,33.70
2018-04-22T18:20:53.740Z,34.70
2018-04-22T18:23:22.538Z,34.70
2018-04-22T18:25:51.085Z,34.90
2018-04-22T18:28:19.457Z,34.90
2018-04-22T18:30:47.864Z,35.40
2018-04-22T18:33:16.274Z,35.90
2018-04-22T18:35:45.417Z,36.70
2018-04-22T18:38:14.911Z,36.70
2018-04-22T18:40:43.309Z,37.10
2018-04-22T18:43:11.783Z,37.20
2018-04-22T18:45:40.184Z,37.30
2018-04-22T18:48:08.794Z,37.50
2018-04-22T18:50:37.365Z,37.90
2018-04-22T18:53:05.754Z,38.20
2018-04-22T18:55:35.170Z,38.20
2018-04-22T18:58:03.692Z,38.10
2018-04-22T19:00:32.282Z,38.90
2018-04-22T19:03:00.865Z,39.00
2018-04-22T19:05:29.311Z,39.50
2018-04-22T19:07:58.110Z,40.00
2018-04-22T19:10:26.533Z,40.30
2018-04-22T19:12:55.091Z,39.90
2018-04-22T19:15:23.613Z,40.30
2018-04-22T19:17:53.539Z,39.20
2018-04-22T19:20:22.069Z,39.20
2018-04-22T19:22:51.489Z,40.10
2018-04-22T19:25:19.953Z,40.00
2018-04-22T19:27:48.369Z,40.40
2018-04-22T19:30:17.583Z,41.00
2018-04-22T19:32:46.857Z,41.30
2018-04-22T19:35:16.870Z,41.70
2018-04-22T19:37:46.106Z,41.90
2018-04-22T19:40:14.564Z,41.90
2018-04-22T19:42:43.883Z,41.90
2018-04-22T19:45:13.092Z,41.60
2018-04-22T19:47:41.910Z,41.70
2018-04-22T19:50:10.311Z,42.00
2018-04-22T19:52:39.113Z,41.90
2018-04-22T19:55:09.563Z,42.00
2018-04-22T19:57:38.689Z,42.00
2018-04-22T20:00:07.807Z,42.20
2018-04-22T20:02:37.226Z,42.50
2018-04-22T20:05:05.738Z,42.50
2018-04-22T20:07:34.152Z,42.30
2018-04-22T20:10:02.988Z,42.50
2018-04-22T20:12:32.634Z,42.70
2018-04-22T20:15:01.254Z,43.40
2018-04-22T20:17:29.859Z,43.80
2018-04-22T20:19:59.224Z,44.10
2018-04-22T20:22:29.215Z,44.00
2018-04-22T20:24:57.979Z,43.90
2018-04-22T20:27:27.717Z,43.90
2018-04-22T20:29:56.428Z,44.50
2018-04-22T20:32:25.276Z,44.60
2018-04-22T20:34:53.648Z,45.10
2018-04-22T20:37:22.203Z,45.40
2018-04-22T20:39:50.664Z,45.50
2018-04-22T20:42:19.135Z,45.40
2018-04-22T20:44:47.549Z,45.60
2018-04-22T20:47:15.958Z,45.90
2018-04-22T20:49:44.531Z,46.00
2018-04-22T20:52:13.135Z,45.40
2018-04-22T20:54:41.632Z,45.30
2018-04-22T20:57:10.057Z,45.00
2018-04-22T20:59:38.501Z,45.00
2018-04-22T21:02:07.013Z,45.00
2018-04-22T21:04:35.396Z,45.30
2018-04-22T21:07:04.138Z,45.30
2018-04-22T21:09:32.534Z,45.90
2018-04-22T21:12:00.918Z,46.30
2018-04-22T21:14:29.318Z,46.40
2018-04-22T21:16:57.736Z,46.50
2018-04-22T21:19:26.153Z,46.40
2018-04-22T21:21:54.550Z,46.40
2018-04-22T21:24:24.035Z,46.90
2018-04-22T21:26:54.142Z,46.00
2018-04-22T21:29:23.321Z,46.10
2018-04-22T21:31:51.724Z,46.20
2018-04-22T21:34:20.105Z,46.30
2018-04-22T21:36:48.592Z,46.90
2018-04-22T21:39:16.960Z,47.10
2018-04-22T21:41:45.458Z,47.70
2018-04-22T21:44:13.840Z,47.90
2018-04-22T21:46:42.253Z,47.90
2018-04-22T21:49:10.673Z,48.00
2018-04-22T21:51:39.917Z,48.20
2018-04-22T21:54:14.228Z,48.00
2018-04-22T21:56:43.591Z,48.30
2018-04-22T21:59:12.048Z,48.40
2018-04-22T22:01:40.452Z,48.60
2018-04-22T22:04:14.167Z,48.70
2018-04-22T22:06:42.555Z,49.30
2018-04-22T22:09:10.952Z,49.60
2018-04-22T22:11:40.130Z,49.80
2018-04-22T22:14:08.508Z,49.80
2018-04-22T22:16:36.917Z,49.50
2018-04-22T22:19:06.057Z,49.80
2018-04-22T22:21:34.461Z,49.80
2018-04-22T22:24:02.842Z,49.50
2018-04-22T22:26:31.591Z,49.80
2018-04-22T22:29:00.336Z,50.10
2018-04-22T22:31:30.345Z,49.90
2018-04-22T22:33:59.562Z,50.30
2018-04-22T22:36:28.705Z,50.20
2018-04-22T22:38:57.115Z,50.20
2018-04-22T22:41:25.492Z,50.40
2018-04-22T22:43:54.645Z,50.50
2018-04-22T22:46:23.301Z,50.50
2018-04-22T22:48:52.538Z,50.80
2018-04-22T22:51:20.938Z,50.80
2018-04-22T22:53:49.314Z,51.20
2018-04-22T22:56:17.721Z,51.30
2018-04-22T22:58:46.871Z,51.50
2018-04-22T23:01:15.540Z,51.40
2018-04-22T23:03:43.917Z,51.80
2018-04-22T23:06:12.292Z,51.90
2018-04-22T23:08:40.686Z,52.30
2018-04-22T23:11:09.060Z,52.30
2018-04-22T23:13:37.464Z,52.80
2018-04-22T23:16:05.854Z,52.80
2018-04-22T23:18:34.789Z,52.70
2018-04-22T23:21:03.162Z,53.20
2018-04-22T23:23:31.537Z,53.30
2018-04-22T23:26:00.034Z,53.30
2018-04-22T23:28:28.438Z,53.20
2018-04-22T23:30:56.837Z,53.00
2018-04-22T23:33:25.238Z,53.00
2018-04-22T23:35:54.423Z,52.80
2018-04-22T23:38:22.801Z,52.70
2018-04-22T23:40:51.176Z,52.60
2018-04-22T23:43:19.580Z,52.60
2018-04-22T23:45:48.720Z,52.50
2018-04-22T23:48:17.129Z,52.50
2018-04-22T23:50:45.559Z,52.50
2018-04-22T23:53:14.362Z,52.30
2018-04-22T23:55:42.741Z,52.30
2018-04-22T23:58:11.127Z,52.30
